sensor_id;sensor_type;location;lat;lon;timestamp;pressure;altitude;pressure_sealevel;temperature;humidity
67842;BME280;54642;59.126;37.876;2023-08-12T00:02:13;100534.13;;;23.40;68.45
67842;BME280;54642;59.126;37.876;2023-08-12T00:04:39;100540.13;;;23.44;68.34
67842;BME280;54642;59.126;37.876;2023-08-12T00:07:05;100540.88;;;23.46;68.64
67842;BME280;54642;59.126;37.876;2023-08-12T00:09:31;100534.81;;;23.44;68.51
67842;BME280;54642;59.126;37.876;2023-08-12T00:11:57;100531.19;;;23.47;68.74
67842;BME280;54642;59.126;37.876;2023-08-12T00:14:23;100537.94;;;23.52;68.96
67842;BME280;54642;59.126;37.876;2023-08-12T00:16:49;100528.06;;;23.56;68.72
67842;BME280;54642;59.126;37.876;2023-08-12T00:19:15;100502.09;;;23.47;68.72
67842;BME280;54642;59.126;37.876;2023-08-12T00:21:40;100515.06;;;23.51;68.94
67842;BME280;54642;59.126;37.876;2023-08-12T00:24:09;100529.75;;;23.57;68.72
67842;BME280;54642;59.126;37.876;2023-08-12T00:26:35;100522.84;;;23.54;69.05
67842;BME280;54642;59.126;37.876;2023-08-12T00:29:00;100525.34;;;23.57;68.66
67842;BME280;54642;59.126;37.876;2023-08-12T00:31:26;100518.41;;;23.55;69.01
67842;BME280;54642;59.126;37.876;2023-08-12T00:33:52;100527.81;;;23.60;69.16
67842;BME280;54642;59.126;37.876;2023-08-12T00:36:18;100513.09;;;23.55;69.18
67842;BME280;54642;59.126;37.876;2023-08-12T00:38:44;100514.50;;;23.62;69.27
67842;BME280;54642;59.126;37.876;2023-08-12T00:41:10;100511.31;;;23.55;68.95
67842;BME280;54642;59.126;37.876;2023-08-12T00:43:36;100506.91;;;23.56;69.16
67842;BME280;54642;59.126;37.876;2023-08-12T00:46:03;100509.47;;;23.57;69.01
67842;BME280;54642;59.126;37.876;2023-08-12T00:48:32;100514.75;;;23.57;69.29
67842;BME280;54642;59.126;37.876;2023-08-12T00:50:58;100526.72;;;23.65;69.16
67842;BME280;54642;59.126;37.876;2023-08-12T00:53:24;100514.50;;;23.62;68.92
67842;BME280;54642;59.126;37.876;2023-08-12T00:55:51;100512.69;;;23.63;68.93
67842;BME280;54642;59.126;37.876;2023-08-12T00:58:17;100526.41;;;23.71;69.40
67842;BME280;54642;59.126;37.876;2023-08-12T01:00:43;100509.91;;;23.66;69.16
67842;BME280;54642;59.126;37.876;2023-08-12T01:03:10;100514.81;;;23.73;68.97
67842;BME280;54642;59.126;37.876;2023-08-12T01:05:37;100516.34;;;23.77;68.80
67842;BME280;54642;59.126;37.876;2023-08-12T01:08:03;100503.28;;;23.74;68.76
67842;BME280;54642;59.126;37.876;2023-08-12T01:10:35;100508.34;;;23.79;68.54
67842;BME280;54642;59.126;37.876;2023-08-12T01:13:19;100499.53;;;23.78;68.71
67842;BME280;54642;59.126;37.876;2023-08-12T01:15:52;100506.50;;;23.81;68.75
67842;BME280;54642;59.126;37.876;2023-08-12T01:18:20;100509.75;;;23.86;68.69
67842;BME280;54642;59.126;37.876;2023-08-12T01:20:48;100493.25;;;23.81;68.27
67842;BME280;54642;59.126;37.876;2023-08-12T01:23:14;100495.91;;;23.81;68.18
67842;BME280;54642;59.126;37.876;2023-08-12T01:25:41;100507.88;;;23.88;68.45
67842;BME280;54642;59.126;37.876;2023-08-12T01:28:07;100509.75;;;23.86;67.99
67842;BME280;54642;59.126;37.876;2023-08-12T01:30:39;100488.91;;;23.80;68.60
67842;BME280;54642;59.126;37.876;2023-08-12T01:35:41;100494.03;;;23.83;68.26
67842;BME280;54642;59.126;37.876;2023-08-12T01:38:10;100489.78;;;23.81;67.86
67842;BME280;54642;59.126;37.876;2023-08-12T01:40:39;100509.16;;;23.81;68.19
67842;BME280;54642;59.126;37.876;2023-08-12T01:43:06;100520.66;;;23.80;68.29
67842;BME280;54642;59.126;37.876;2023-08-12T01:45:35;100549.59;;;23.66;68.48
67842;BME280;54642;59.126;37.876;2023-08-12T01:48:01;100567.41;;;23.79;68.67
67842;BME280;54642;59.126;37.876;2023-08-12T01:50:28;100584.63;;;23.71;68.99
67842;BME280;54642;59.126;37.876;2023-08-12T01:52:54;100582.03;;;23.69;69.05
67842;BME280;54642;59.126;37.876;2023-08-12T01:55:19;100562.13;;;23.62;69.34
67842;BME280;54642;59.126;37.876;2023-08-12T01:57:45;100586.78;;;23.63;69.13
67842;BME280;54642;59.126;37.876;2023-08-12T02:00:11;100589.69;;;23.58;69.75
67842;BME280;54642;59.126;37.876;2023-08-12T02:02:43;100586.09;;;23.59;70.32
67842;BME280;54642;59.126;37.876;2023-08-12T02:05:12;100562.94;;;23.47;70.84
67842;BME280;54642;59.126;37.876;2023-08-12T02:07:38;100576.84;;;23.50;71.48
67842;BME280;54642;59.126;37.876;2023-08-12T02:10:05;100575.59;;;23.57;71.63
67842;BME280;54642;59.126;37.876;2023-08-12T02:12:31;100579.31;;;23.53;72.38
67842;BME280;54642;59.126;37.876;2023-08-12T02:14:57;100589.13;;;23.51;72.43
67842;BME280;54642;59.126;37.876;2023-08-12T02:17:23;100577.63;;;23.52;72.83
67842;BME280;54642;59.126;37.876;2023-08-12T02:19:51;100558.41;;;23.49;72.73
67842;BME280;54642;59.126;37.876;2023-08-12T02:22:17;100555.84;;;23.47;72.54
67842;BME280;54642;59.126;37.876;2023-08-12T02:24:43;100569.84;;;23.49;72.81
67842;BME280;54642;59.126;37.876;2023-08-12T02:27:09;100568.81;;;23.52;72.75
67842;BME280;54642;59.126;37.876;2023-08-12T02:29:34;100567.19;;;23.49;72.58
67842;BME280;54642;59.126;37.876;2023-08-12T02:32:00;100564.06;;;23.58;72.57
67842;BME280;54642;59.126;37.876;2023-08-12T02:34:28;100545.88;;;23.52;72.84
67842;BME280;54642;59.126;37.876;2023-08-12T02:36:54;100563.91;;;23.62;72.40
67842;BME280;54642;59.126;37.876;2023-08-12T02:39:20;100558.94;;;23.55;72.38
67842;BME280;54642;59.126;37.876;2023-08-12T02:41:45;100556.59;;;23.49;72.78
67842;BME280;54642;59.126;37.876;2023-08-12T02:44:11;100552.66;;;23.58;72.99
67842;BME280;54642;59.126;37.876;2023-08-12T02:46:37;100563.59;;;23.68;72.52
67842;BME280;54642;59.126;37.876;2023-08-12T02:49:03;100559.47;;;23.62;72.74
67842;BME280;54642;59.126;37.876;2023-08-12T02:51:29;100553.34;;;23.62;72.89
67842;BME280;54642;59.126;37.876;2023-08-12T02:53:55;100542.53;;;23.66;72.80
67842;BME280;54642;59.126;37.876;2023-08-12T02:56:21;100552.41;;;23.80;72.63
67842;BME280;54642;59.126;37.876;2023-08-12T02:58:47;100541.03;;;23.78;72.55
67842;BME280;54642;59.126;37.876;2023-08-12T03:01:13;100555.53;;;23.88;72.52
67842;BME280;54642;59.126;37.876;2023-08-12T03:03:39;100542.97;;;23.92;72.75
67842;BME280;54642;59.126;37.876;2023-08-12T03:06:05;100544.44;;;23.97;72.62
67842;BME280;54642;59.126;37.876;2023-08-12T03:08:31;100538.91;;;24.02;72.27
67842;BME280;54642;59.126;37.876;2023-08-12T03:11:01;100543.03;;;24.08;72.32
67842;BME280;54642;59.126;37.876;2023-08-12T03:13:28;100529.94;;;24.05;72.56
67842;BME280;54642;59.126;37.876;2023-08-12T03:15:55;100523.03;;;24.02;72.45
67842;BME280;54642;59.126;37.876;2023-08-12T03:18:21;100525.56;;;24.04;72.15
67842;BME280;54642;59.126;37.876;2023-08-12T03:20:47;100518.09;;;24.12;71.89
67842;BME280;54642;59.126;37.876;2023-08-12T03:23:14;100494.06;;;23.99;72.16
67842;BME280;54642;59.126;37.876;2023-08-12T03:25:40;100505.69;;;24.12;72.48
67842;BME280;54642;59.126;37.876;2023-08-12T03:28:07;100500.06;;;24.19;72.09
67842;BME280;54642;59.126;37.876;2023-08-12T03:30:33;100508.63;;;24.24;72.20
67842;BME280;54642;59.126;37.876;2023-08-12T03:33:00;100503.25;;;24.25;71.72
67842;BME280;54642;59.126;37.876;2023-08-12T03:35:29;100488.38;;;24.23;71.77
67842;BME280;54642;59.126;37.876;2023-08-12T03:37:55;100485.88;;;24.20;71.72
67842;BME280;54642;59.126;37.876;2023-08-12T03:40:22;100481.25;;;24.23;71.56
67842;BME280;54642;59.126;37.876;2023-08-12T03:42:48;100484.72;;;24.25;71.91
67842;BME280;54642;59.126;37.876;2023-08-12T03:45:15;100503.50;;;24.36;71.85
67842;BME280;54642;59.126;37.876;2023-08-12T03:47:41;100484.53;;;24.28;71.78
67842;BME280;54642;59.126;37.876;2023-08-12T03:50:07;100490.50;;;24.32;71.58
67842;BME280;54642;59.126;37.876;2023-08-12T03:52:33;100489.41;;;24.36;71.40
67842;BME280;54642;59.126;37.876;2023-08-12T03:54:59;100477.53;;;24.27;71.32
67842;BME280;54642;59.126;37.876;2023-08-12T03:57:25;100475.22;;;24.21;71.83
67842;BME280;54642;59.126;37.876;2023-08-12T03:59:51;100454.34;;;23.99;71.60
67842;BME280;54642;59.126;37.876;2023-08-12T04:02:17;100470.09;;;24.02;71.65
67842;BME280;54642;59.126;37.876;2023-08-12T04:04:43;100466.91;;;23.95;71.51
67842;BME280;54642;59.126;37.876;2023-08-12T04:07:10;100454.00;;;23.89;71.59
67842;BME280;54642;59.126;37.876;2023-08-12T04:09:35;100468.13;;;24.06;71.66
67842;BME280;54642;59.126;37.876;2023-08-12T04:12:02;100450.00;;;23.98;71.36
67842;BME280;54642;59.126;37.876;2023-08-12T04:14:28;100467.16;;;24.07;71.52
67842;BME280;54642;59.126;37.876;2023-08-12T04:16:53;100478.38;;;24.12;71.61
67842;BME280;54642;59.126;37.876;2023-08-12T04:19:19;100457.69;;;24.03;71.69
67842;BME280;54642;59.126;37.876;2023-08-12T04:21:46;100480.50;;;24.21;71.53
67842;BME280;54642;59.126;37.876;2023-08-12T04:24:12;100468.22;;;24.20;71.25
67842;BME280;54642;59.126;37.876;2023-08-12T04:26:38;100470.50;;;24.26;71.78
67842;BME280;54642;59.126;37.876;2023-08-12T04:29:05;100475.81;;;24.26;71.54
67842;BME280;54642;59.126;37.876;2023-08-12T04:31:34;100464.97;;;24.31;71.47
67842;BME280;54642;59.126;37.876;2023-08-12T04:34:02;100462.66;;;24.41;71.23
67842;BME280;54642;59.126;37.876;2023-08-12T04:36:28;100454.19;;;24.50;70.50
67842;BME280;54642;59.126;37.876;2023-08-12T04:38:54;100441.38;;;24.58;69.68
67842;BME280;54642;59.126;37.876;2023-08-12T04:41:20;100451.28;;;24.70;68.79
67842;BME280;54642;59.126;37.876;2023-08-12T04:43:48;100444.19;;;24.71;68.90
67842;BME280;54642;59.126;37.876;2023-08-12T04:46:15;100447.88;;;24.68;68.25
67842;BME280;54642;59.126;37.876;2023-08-12T04:48:41;100445.22;;;24.68;68.55
67842;BME280;54642;59.126;37.876;2023-08-12T04:51:07;100433.16;;;24.63;68.30
67842;BME280;54642;59.126;37.876;2023-08-12T04:53:33;100433.94;;;24.65;68.11
67842;BME280;54642;59.126;37.876;2023-08-12T04:55:59;100435.13;;;24.59;68.05
67842;BME280;54642;59.126;37.876;2023-08-12T04:58:26;100464.41;;;24.88;67.65
67842;BME280;54642;59.126;37.876;2023-08-12T05:00:52;100457.31;;;24.88;67.54
67842;BME280;54642;59.126;37.876;2023-08-12T05:03:19;100461.66;;;24.89;67.26
67842;BME280;54642;59.126;37.876;2023-08-12T05:05:51;100457.31;;;24.88;67.01
67842;BME280;54642;59.126;37.876;2023-08-12T05:08:18;100454.91;;;24.84;67.58
67842;BME280;54642;59.126;37.876;2023-08-12T05:10:47;100449.91;;;24.79;67.07
67842;BME280;54642;59.126;37.876;2023-08-12T05:13:14;100458.63;;;24.81;66.71
67842;BME280;54642;59.126;37.876;2023-08-12T05:15:40;100454.00;;;24.85;66.71
67842;BME280;54642;59.126;37.876;2023-08-12T05:18:06;100454.16;;;24.82;66.53
67842;BME280;54642;59.126;37.876;2023-08-12T05:20:33;100440.72;;;24.85;66.88
67842;BME280;54642;59.126;37.876;2023-08-12T05:22:58;100441.50;;;24.87;66.69
67842;BME280;54642;59.126;37.876;2023-08-12T05:25:24;100427.31;;;24.88;65.98
67842;BME280;54642;59.126;37.876;2023-08-12T05:27:50;100431.41;;;24.93;65.55
67842;BME280;54642;59.126;37.876;2023-08-12T05:30:16;100420.78;;;24.93;65.69
67842;BME280;54642;59.126;37.876;2023-08-12T05:32:42;100416.06;;;24.99;65.67
67842;BME280;54642;59.126;37.876;2023-08-12T05:35:08;100427.53;;;24.99;65.78
67842;BME280;54642;59.126;37.876;2023-08-12T05:37:34;100429.22;;;25.00;65.47
67842;BME280;54642;59.126;37.876;2023-08-12T05:40:00;100413.03;;;25.05;65.53
67842;BME280;54642;59.126;37.876;2023-08-12T05:42:26;100427.72;;;25.10;65.33
67842;BME280;54642;59.126;37.876;2023-08-12T05:44:52;100414.19;;;25.01;65.10
67842;BME280;54642;59.126;37.876;2023-08-12T05:47:18;100387.34;;;24.91;65.15
67842;BME280;54642;59.126;37.876;2023-08-12T05:49:46;100402.22;;;24.93;65.18
67842;BME280;54642;59.126;37.876;2023-08-12T05:52:12;100415.28;;;24.97;64.68
67842;BME280;54642;59.126;37.876;2023-08-12T05:54:38;100416.50;;;24.91;64.81
67842;BME280;54642;59.126;37.876;2023-08-12T05:57:04;100400.22;;;24.83;64.68
67842;BME280;54642;59.126;37.876;2023-08-12T05:59:30;100407.41;;;24.81;65.07
67842;BME280;54642;59.126;37.876;2023-08-12T06:01:55;100419.91;;;24.93;64.90
67842;BME280;54642;59.126;37.876;2023-08-12T06:04:21;100418.31;;;24.90;65.15
67842;BME280;54642;59.126;37.876;2023-08-12T06:06:48;100402.31;;;24.92;64.66
67842;BME280;54642;59.126;37.876;2023-08-12T06:09:13;100409.00;;;25.14;65.01
67842;BME280;54642;59.126;37.876;2023-08-12T06:11:39;100409.03;;;25.42;64.48
67842;BME280;54642;59.126;37.876;2023-08-12T06:14:06;100403.72;;;25.71;63.75
67842;BME280;54642;59.126;37.876;2023-08-12T06:16:32;100415.84;;;26.04;63.17
67842;BME280;54642;59.126;37.876;2023-08-12T06:18:59;100385.19;;;26.13;62.57
67842;BME280;54642;59.126;37.876;2023-08-12T06:21:25;100398.03;;;26.33;61.75
67842;BME280;54642;59.126;37.876;2023-08-12T06:23:50;100391.34;;;26.40;62.46
67842;BME280;54642;59.126;37.876;2023-08-12T06:26:16;100407.13;;;26.56;61.85
67842;BME280;54642;59.126;37.876;2023-08-12T06:28:43;100414.38;;;26.54;61.54
67842;BME280;54642;59.126;37.876;2023-08-12T06:31:08;100416.06;;;26.55;61.33
67842;BME280;54642;59.126;37.876;2023-08-12T06:33:34;100417.69;;;26.58;61.20
67842;BME280;54642;59.126;37.876;2023-08-12T06:36:00;100413.09;;;26.60;61.06
67842;BME280;54642;59.126;37.876;2023-08-12T06:38:26;100416.66;;;26.73;60.78
67842;BME280;54642;59.126;37.876;2023-08-12T06:40:52;100438.75;;;26.88;60.46
67842;BME280;54642;59.126;37.876;2023-08-12T06:43:18;100405.84;;;26.76;60.50
67842;BME280;54642;59.126;37.876;2023-08-12T06:45:44;100422.34;;;26.94;60.37
67842;BME280;54642;59.126;37.876;2023-08-12T06:48:10;100417.88;;;26.95;60.83
67842;BME280;54642;59.126;37.876;2023-08-12T06:50:36;100415.56;;;26.90;60.87
67842;BME280;54642;59.126;37.876;2023-08-12T06:53:02;100412.25;;;26.99;61.03
67842;BME280;54642;59.126;37.876;2023-08-12T06:55:28;100397.25;;;26.98;60.87
67842;BME280;54642;59.126;37.876;2023-08-12T06:57:53;100408.75;;;27.12;60.53
67842;BME280;54642;59.126;37.876;2023-08-12T07:00:22;100415.38;;;27.19;60.86
67842;BME280;54642;59.126;37.876;2023-08-12T07:02:48;100408.59;;;27.28;60.23
67842;BME280;54642;59.126;37.876;2023-08-12T07:05:14;100414.56;;;27.31;60.21
67842;BME280;54642;59.126;37.876;2023-08-12T07:07:40;100417.06;;;27.33;60.09
67842;BME280;54642;59.126;37.876;2023-08-12T07:10:06;100423.16;;;27.35;60.18
67842;BME280;54642;59.126;37.876;2023-08-12T07:12:32;100420.50;;;27.48;60.04
67842;BME280;54642;59.126;37.876;2023-08-12T07:14:58;100422.72;;;27.54;59.87
67842;BME280;54642;59.126;37.876;2023-08-12T07:17:24;100414.53;;;27.57;59.07
67842;BME280;54642;59.126;37.876;2023-08-12T07:19:50;100400.78;;;27.50;59.41
67842;BME280;54642;59.126;37.876;2023-08-12T07:22:16;100405.56;;;27.45;58.94
67842;BME280;54642;59.126;37.876;2023-08-12T07:24:45;100432.00;;;27.48;59.16
67842;BME280;54642;59.126;37.876;2023-08-12T07:27:11;100413.91;;;27.41;59.23
67842;BME280;54642;59.126;37.876;2023-08-12T07:29:37;100412.84;;;27.30;59.26
67842;BME280;54642;59.126;37.876;2023-08-12T07:32:03;100418.91;;;27.32;59.73
67842;BME280;54642;59.126;37.876;2023-08-12T07:34:29;100423.56;;;27.42;59.29
67842;BME280;54642;59.126;37.876;2023-08-12T07:36:55;100416.44;;;27.68;58.26
67842;BME280;54642;59.126;37.876;2023-08-12T07:39:20;100397.97;;;27.77;57.79
67842;BME280;54642;59.126;37.876;2023-08-12T07:41:46;100401.91;;;27.98;57.05
67842;BME280;54642;59.126;37.876;2023-08-12T07:44:12;100415.69;;;28.16;56.72
67842;BME280;54642;59.126;37.876;2023-08-12T07:46:38;100409.28;;;28.18;56.55
67842;BME280;54642;59.126;37.876;2023-08-12T07:49:04;100402.91;;;28.21;56.56
67842;BME280;54642;59.126;37.876;2023-08-12T07:51:30;100409.63;;;28.38;56.21
67842;BME280;54642;59.126;37.876;2023-08-12T07:53:56;100396.19;;;28.39;55.73
67842;BME280;54642;59.126;37.876;2023-08-12T07:56:22;100398.72;;;28.54;54.96
67842;BME280;54642;59.126;37.876;2023-08-12T07:58:47;100405.78;;;28.66;55.14
67842;BME280;54642;59.126;37.876;2023-08-12T08:01:13;100408.97;;;28.71;55.09
67842;BME280;54642;59.126;37.876;2023-08-12T08:03:39;100379.25;;;28.40;55.05
67842;BME280;54642;59.126;37.876;2023-08-12T08:06:05;100400.28;;;28.32;54.86
67842;BME280;54642;59.126;37.876;2023-08-12T08:08:31;100391.94;;;28.12;55.13
67842;BME280;54642;59.126;37.876;2023-08-12T08:10:57;100388.03;;;28.05;55.46
67842;BME280;54642;59.126;37.876;2023-08-12T08:13:22;100401.50;;;28.15;55.45
67842;BME280;54642;59.126;37.876;2023-08-12T08:15:48;100390.38;;;28.10;54.63
67842;BME280;54642;59.126;37.876;2023-08-12T08:18:14;100401.84;;;28.34;54.65
67842;BME280;54642;59.126;37.876;2023-08-12T08:20:42;100395.97;;;28.42;54.11
67842;BME280;54642;59.126;37.876;2023-08-12T08:23:08;100403.63;;;28.47;54.23
67842;BME280;54642;59.126;37.876;2023-08-12T08:25:34;100401.16;;;28.57;54.59
67842;BME280;54642;59.126;37.876;2023-08-12T08:28:00;100406.53;;;28.68;54.76
67842;BME280;54642;59.126;37.876;2023-08-12T08:30:26;100391.38;;;28.68;54.41
67842;BME280;54642;59.126;37.876;2023-08-12T08:32:52;100391.94;;;28.61;54.28
67842;BME280;54642;59.126;37.876;2023-08-12T08:35:17;100396.56;;;28.59;53.35
67842;BME280;54642;59.126;37.876;2023-08-12T08:37:43;100411.84;;;28.68;53.39
67842;BME280;54642;59.126;37.876;2023-08-12T08:40:10;100406.53;;;28.68;52.54
67842;BME280;54642;59.126;37.876;2023-08-12T08:42:37;100412.38;;;28.73;52.71
67842;BME280;54642;59.126;37.876;2023-08-12T08:45:04;100390.53;;;28.68;52.36
67842;BME280;54642;59.126;37.876;2023-08-12T08:47:32;100398.03;;;28.74;52.17
67842;BME280;54642;59.126;37.876;2023-08-12T08:49:59;100410.44;;;28.75;51.88
67842;BME280;54642;59.126;37.876;2023-08-12T08:52:26;100410.66;;;28.72;51.93
67842;BME280;54642;59.126;37.876;2023-08-12T08:54:52;100415.97;;;28.72;51.85
67842;BME280;54642;59.126;37.876;2023-08-12T08:57:18;100381.06;;;28.64;52.12
67842;BME280;54642;59.126;37.876;2023-08-12T08:59:45;100382.84;;;28.63;51.88
67842;BME280;54642;59.126;37.876;2023-08-12T09:02:16;100403.84;;;28.68;51.89
67842;BME280;54642;59.126;37.876;2023-08-12T09:04:46;100398.31;;;28.71;51.54
67842;BME280;54642;59.126;37.876;2023-08-12T09:07:12;100392.47;;;28.66;51.15
67842;BME280;54642;59.126;37.876;2023-08-12T09:09:45;100387.81;;;28.57;50.75
67842;BME280;54642;59.126;37.876;2023-08-12T09:12:16;100398.72;;;28.54;51.07
67842;BME280;54642;59.126;37.876;2023-08-12T09:14:43;100381.91;;;28.40;51.46
67842;BME280;54642;59.126;37.876;2023-08-12T09:17:09;100389.25;;;28.37;51.59
67842;BME280;54642;59.126;37.876;2023-08-12T09:19:35;100395.72;;;28.45;51.40
67842;BME280;54642;59.126;37.876;2023-08-12T09:22:03;100372.31;;;28.38;51.52
67842;BME280;54642;59.126;37.876;2023-08-12T09:24:30;100386.22;;;28.30;51.85
67842;BME280;54642;59.126;37.876;2023-08-12T09:26:56;100381.22;;;28.25;51.69
67842;BME280;54642;59.126;37.876;2023-08-12T09:29:32;100383.66;;;28.28;52.03
67842;BME280;54642;59.126;37.876;2023-08-12T09:32:17;100378.50;;;28.38;51.66
67842;BME280;54642;59.126;37.876;2023-08-12T09:34:52;100387.72;;;28.58;52.02
67842;BME280;54642;59.126;37.876;2023-08-12T09:37:19;100385.88;;;28.59;51.83
67842;BME280;54642;59.126;37.876;2023-08-12T09:39:47;100387.97;;;28.66;51.62
67842;BME280;54642;59.126;37.876;2023-08-12T09:42:15;100395.97;;;28.66;51.46
67842;BME280;54642;59.126;37.876;2023-08-12T09:44:41;100384.72;;;28.74;51.44
67842;BME280;54642;59.126;37.876;2023-08-12T09:47:08;100373.91;;;28.64;51.39
67842;BME280;54642;59.126;37.876;2023-08-12T09:49:37;100386.66;;;28.72;51.73
67842;BME280;54642;59.126;37.876;2023-08-12T09:52:04;100370.31;;;28.52;51.79
67842;BME280;54642;59.126;37.876;2023-08-12T09:54:36;100384.19;;;28.58;51.96
67842;BME280;54642;59.126;37.876;2023-08-12T09:57:04;100377.06;;;28.45;52.34
67842;BME280;54642;59.126;37.876;2023-08-12T09:59:33;100387.41;;;28.50;52.84
67842;BME280;54642;59.126;37.876;2023-08-12T10:02:03;100385.94;;;28.46;52.76
67842;BME280;54642;59.126;37.876;2023-08-12T10:04:37;100370.97;;;28.32;53.04
67842;BME280;54642;59.126;37.876;2023-08-12T10:07:07;100383.31;;;28.33;53.21
67842;BME280;54642;59.126;37.876;2023-08-12T10:09:35;100374.84;;;28.28;53.32
67842;BME280;54642;59.126;37.876;2023-08-12T10:12:01;100388.53;;;28.34;53.34
67842;BME280;54642;59.126;37.876;2023-08-12T10:14:29;100380.44;;;28.36;53.17
67842;BME280;54642;59.126;37.876;2023-08-12T10:16:55;100359.28;;;28.22;53.78
67842;BME280;54642;59.126;37.876;2023-08-12T10:19:24;100386.97;;;28.32;53.50
67842;BME280;54642;59.126;37.876;2023-08-12T10:21:54;100394.53;;;28.25;53.73
67842;BME280;54642;59.126;37.876;2023-08-12T10:24:21;100377.16;;;28.08;54.24
67842;BME280;54642;59.126;37.876;2023-08-12T10:26:48;100386.31;;;28.04;53.97
67842;BME280;54642;59.126;37.876;2023-08-12T10:29:15;100380.03;;;28.05;54.34
67842;BME280;54642;59.126;37.876;2023-08-12T10:31:41;100384.63;;;28.03;53.82
67842;BME280;54642;59.126;37.876;2023-08-12T10:34:30;100384.41;;;28.06;54.38
67842;BME280;54642;59.126;37.876;2023-08-12T10:36:57;100374.19;;;28.00;55.01
67842;BME280;54642;59.126;37.876;2023-08-12T10:39:26;100369.31;;;27.94;54.76
67842;BME280;54642;59.126;37.876;2023-08-12T10:41:56;100391.88;;;28.01;54.86
67842;BME280;54642;59.126;37.876;2023-08-12T10:44:39;100394.44;;;28.03;55.12
67842;BME280;54642;59.126;37.876;2023-08-12T10:47:09;100407.88;;;28.01;55.75
67842;BME280;54642;59.126;37.876;2023-08-12T10:49:43;100402.84;;;27.97;55.15
67842;BME280;54642;59.126;37.876;2023-08-12T10:52:30;100398.91;;;27.89;55.12
67842;BME280;54642;59.126;37.876;2023-08-12T10:55:24;100417.25;;;27.94;54.93
67842;BME280;54642;59.126;37.876;2023-08-12T10:57:52;100416.19;;;27.84;54.78
67842;BME280;54642;59.126;37.876;2023-08-12T11:00:20;100407.66;;;27.79;54.97
67842;BME280;54642;59.126;37.876;2023-08-12T11:02:50;100411.53;;;27.74;55.06
67842;BME280;54642;59.126;37.876;2023-08-12T11:05:17;100421.19;;;27.75;54.96
67842;BME280;54642;59.126;37.876;2023-08-12T11:07:57;100411.22;;;27.66;55.16
67842;BME280;54642;59.126;37.876;2023-08-12T11:10:33;100433.78;;;27.73;55.12
67842;BME280;54642;59.126;37.876;2023-08-12T11:13:00;100426.00;;;27.70;55.05
67842;BME280;54642;59.126;37.876;2023-08-12T11:15:36;100437.41;;;27.72;55.22
67842;BME280;54642;59.126;37.876;2023-08-12T11:18:08;100426.88;;;27.71;55.33
67842;BME280;54642;59.126;37.876;2023-08-12T11:20:34;100439.44;;;27.69;55.51
67842;BME280;54642;59.126;37.876;2023-08-12T11:23:01;100417.28;;;27.55;55.66
67842;BME280;54642;59.126;37.876;2023-08-12T11:25:31;100435.63;;;27.60;55.93
67842;BME280;54642;59.126;37.876;2023-08-12T11:27:57;100442.84;;;27.58;56.11
67842;BME280;54642;59.126;37.876;2023-08-12T11:30:24;100432.19;;;27.45;56.21
67842;BME280;54642;59.126;37.876;2023-08-12T11:32:52;100433.28;;;27.43;56.70
67842;BME280;54642;59.126;37.876;2023-08-12T11:35:19;100443.91;;;27.43;56.97
67842;BME280;54642;59.126;37.876;2023-08-12T11:37:47;100425.19;;;27.31;56.76
67842;BME280;54642;59.126;37.876;2023-08-12T11:40:15;100444.19;;;27.25;57.23
67842;BME280;54642;59.126;37.876;2023-08-12T11:42:43;100434.53;;;27.24;57.58
67842;BME280;54642;59.126;37.876;2023-08-12T11:45:11;100434.72;;;27.21;58.10
67842;BME280;54642;59.126;37.876;2023-08-12T11:47:38;100445.38;;;27.21;57.96
67842;BME280;54642;59.126;37.876;2023-08-12T11:50:06;100460.94;;;27.27;58.16
67842;BME280;54642;59.126;37.876;2023-08-12T11:52:32;100452.50;;;27.20;58.30
67842;BME280;54642;59.126;37.876;2023-08-12T11:54:59;100458.69;;;27.21;58.76
67842;BME280;54642;59.126;37.876;2023-08-12T11:57:26;100450.16;;;27.16;58.82
67842;BME280;54642;59.126;37.876;2023-08-12T12:00:03;100437.28;;;27.10;58.89
67842;BME280;54642;59.126;37.876;2023-08-12T12:02:56;100438.44;;;27.06;58.98
67842;BME280;54642;59.126;37.876;2023-08-12T12:05:31;100423.00;;;26.98;59.07
67842;BME280;54642;59.126;37.876;2023-08-12T12:07:59;100447.69;;;27.13;59.55
67842;BME280;54642;59.126;37.876;2023-08-12T12:10:36;100444.09;;;27.14;59.06
67842;BME280;54642;59.126;37.876;2023-08-12T12:13:03;100436.09;;;27.14;59.28
67842;BME280;54642;59.126;37.876;2023-08-12T12:15:31;100436.84;;;27.16;59.02
67842;BME280;54642;59.126;37.876;2023-08-12T12:17:58;100413.00;;;27.01;58.58
67842;BME280;54642;59.126;37.876;2023-08-12T12:20:24;100440.25;;;27.18;58.79
67842;BME280;54642;59.126;37.876;2023-08-12T12:22:52;100439.41;;;27.17;58.32
67842;BME280;54642;59.126;37.876;2023-08-12T12:25:18;100444.53;;;27.20;58.78
67842;BME280;54642;59.126;37.876;2023-08-12T12:27:47;100444.53;;;27.20;58.38
67842;BME280;54642;59.126;37.876;2023-08-12T12:30:14;100447.06;;;27.22;58.41
67842;BME280;54642;59.126;37.876;2023-08-12T12:32:40;100447.84;;;27.24;58.46
67842;BME280;54642;59.126;37.876;2023-08-12T12:35:07;100438.56;;;27.17;58.37
67842;BME280;54642;59.126;37.876;2023-08-12T12:37:33;100441.09;;;27.18;58.60
67842;BME280;54642;59.126;37.876;2023-08-12T12:39:59;100426.31;;;27.14;59.00
67842;BME280;54642;59.126;37.876;2023-08-12T12:42:25;100434.09;;;27.17;58.65
67842;BME280;54642;59.126;37.876;2023-08-12T12:44:51;100437.06;;;27.26;58.88